Machelen, Belgium
Current Conditions -  °F | °C
As of 7:50 PM on Monday 20 Oct 2014 (Local Time) from EBBR Reporting Station
Broken Clouds Broken Clouds  
Wind Chill: 14°   Ceiling: 4800
Heat Index: 14°   Visibility: 6mi
Dew Point: 12°   Wind: 8mph
Humidity: 88%   Direction: 230°SW
Pressure: 30"   Gusts: NA
Location:  50.91°N, 4.44°E
Report Text: EBBR 201750Z 23007KT 9999 SCT024 BKN048 14/12 Q1016 NOSIG
Loading
Personal Weather Stations






























Interactive Weather Map
Tropical Storm Tracking
New forecast layout! Learn more

10-Day Weather Forecast

Advertisements
Track Severe Weather on mobile